Hobart, Oklahoma
Current Conditions -  °F | °C
As of 12:53 PM on Thursday 30 Oct 2014 (Local Time) from KHBR Reporting Station
Clear Clear  
Wind Chill: 23°   Ceiling: Unl
Heat Index: 23°   Visibility: 10mi
Dew Point:   Wind: 10mph
Humidity: 37%   Direction: 20°NNE
Pressure: 30.17"   Gusts: NA
Location:  35.03°N, 99.09°W
Report Text: KHBR 301753Z AUTO 02009KT 10SM CLR 23/08 A3017 RMK AO2 SLP206 T02330078 10233 20089 50001
Loading
Personal Weather Stations






























Interactive Weather Map
Tropical Storm Tracking
New forecast layout! Learn more

10-Day Weather Forecast

Advertisements
Track Severe Weather on mobile